Time;durP1;ratioP1;P1;durP2;ratioP2;P2;SDS_P1;SDS_P2;PMS_P1;PMS_P2;Temp;Humidity;BMP_temperature;BMP_pressure;BME280_temperature;BME280_humidity;BME280_pressure;Samples;Min_cycle;Max_cycle;Signal;HPM_P1;HPM_P2
2024/04/10 00:02:22;;;;;;;0.10;0.10;;;;;;;10.85;51.39;101372.94;7360171;19;20029;-62
2024/04/10 00:04:48;;;;;;;0.10;0.10;;;;;;;10.81;52.00;101375.59;7357008;19;20052;-62
2024/04/10 00:07:14;;;;;;;0.10;0.10;;;;;;;10.84;51.51;101371.19;7359306;19;20010;-62
2024/04/10 00:09:40;;;;;;;0.10;0.10;;;;;;;10.84;51.70;101375.56;7358001;19;20018;-61
2024/04/10 00:12:06;;;;;;;0.10;0.10;;;;;;;10.82;51.74;101372.09;7354571;19;20027;-62
2024/04/10 00:14:34;;;;;;;0.10;0.10;;;;;;;10.82;51.78;101364.25;7360278;19;20030;-62
2024/04/10 00:17:00;;;;;;;0.10;0.10;;;;;;;10.78;51.94;101352.97;7359767;19;20090;-62
2024/04/10 00:19:25;;;;;;;0.00;0.00;;;;;;;10.76;51.96;101356.50;7359394;19;20033;-62
2024/04/10 00:21:54;;;;;;;0.10;0.10;;;;;;;10.80;51.45;101352.97;7356384;19;20524;-62
2024/04/10 00:24:20;;;;;;;0.10;0.10;;;;;;;10.74;52.05;101350.44;7357718;19;20048;-62
2024/04/10 00:26:49;;;;;;;0.10;0.10;;;;;;;10.72;52.11;101342.63;7364587;19;20027;-62
2024/04/10 00:29:15;;;;;;;0.10;0.10;;;;;;;10.75;52.43;101350.44;7365809;19;20685;-62
2024/04/10 00:31:41;;;;;;;0.10;0.10;;;;;;;10.60;51.92;101329.72;7362850;19;20015;-62
2024/04/10 00:34:07;;;;;;;0.10;0.10;;;;;;;10.69;52.28;101339.16;7360123;19;20010;-62
2024/04/10 00:36:32;;;;;;;0.00;0.00;;;;;;;10.69;52.04;101333.94;7367999;19;20021;-62
2024/04/10 00:38:58;;;;;;;0.00;0.00;;;;;;;10.68;52.35;101329.63;7363465;19;20745;-61
2024/04/10 00:41:23;;;;;;;0.10;0.10;;;;;;;10.63;52.48;101319.22;7365569;19;20031;-62
2024/04/10 00:43:48;;;;;;;0.10;0.10;;;;;;;10.53;52.68;101301.94;7363995;19;20940;-61
2024/04/10 00:46:23;;;;;;;0.03;0.03;;;;;;;10.61;51.31;101311.41;7364348;19;20017;-62
2024/04/10 00:48:50;;;;;;;0.00;0.00;;;;;;;10.58;52.88;101314.06;7362179;19;20015;-62
2024/04/10 00:51:22;;;;;;;0.00;0.00;;;;;;;10.58;52.15;101300.13;7364910;19;20424;-61
2024/04/10 00:53:48;;;;;;;0.10;0.10;;;;;;;10.55;53.13;101305.41;7361231;19;20011;-63
2024/04/10 00:56:14;;;;;;;0.10;0.10;;;;;;;10.55;52.46;101310.66;7364082;19;20919;-61
2024/04/10 00:58:40;;;;;;;0.10;0.10;;;;;;;10.54;52.96;101312.41;7364324;19;20021;-62
2024/04/10 01:01:07;;;;;;;0.10;0.10;;;;;;;10.53;52.48;101302.81;7365275;19;20605;-62
2024/04/10 01:03:34;;;;;;;0.00;0.00;;;;;;;10.43;53.04;101284.66;7361360;19;20042;-62
2024/04/10 01:06:07;;;;;;;0.10;0.10;;;;;;;10.51;52.38;101291.53;7363935;19;20077;-62
2024/04/10 01:08:35;;;;;;;0.03;0.03;;;;;;;10.51;52.97;101288.91;7362235;19;20015;-62
2024/04/10 01:11:03;;;;;;;0.10;0.10;;;;;;;10.50;53.20;101284.59;7362954;19;20697;-63
2024/04/10 01:13:29;;;;;;;0.10;0.10;;;;;;;10.49;52.80;101290.69;7365753;19;20985;-62
2024/04/10 01:15:55;;;;;;;0.10;0.10;;;;;;;10.23;52.41;101248.34;7363000;19;20017;-63
2024/04/10 01:18:21;;;;;;;0.10;0.10;;;;;;;10.47;53.03;101302.91;7360080;19;20006;-62
2024/04/10 01:20:48;;;;;;;0.10;0.10;;;;;;;10.46;53.32;101295.94;7364424;19;20370;-62
2024/04/10 01:23:14;;;;;;;0.00;0.00;;;;;;;10.38;53.15;101282.97;7353668;19;20035;-62
2024/04/10 01:25:40;;;;;;;0.10;0.10;;;;;;;10.45;53.43;101304.66;7360017;19;20745;-62
2024/04/10 01:28:05;;;;;;;0.10;0.10;;;;;;;10.45;53.48;101298.59;7363010;19;20446;-61
2024/04/10 01:30:31;;;;;;;0.10;0.10;;;;;;;10.47;53.30;101302.03;7358647;19;20006;-61
2024/04/10 01:32:57;;;;;;;0.10;0.10;;;;;;;10.47;53.25;101302.03;7365343;19;20021;-63
2024/04/10 01:35:22;;;;;;;0.10;0.10;;;;;;;10.34;53.75;101283.03;7359666;19;20003;-61
2024/04/10 01:37:47;;;;;;;0.10;0.10;;;;;;;10.49;53.47;101306.38;7357605;19;20027;-63
2024/04/10 01:40:13;;;;;;;0.10;0.10;;;;;;;10.44;53.70;101302.94;7360254;19;20494;-62
2024/04/10 01:42:43;;;;;;;0.00;0.00;;;;;;;10.51;53.26;101307.19;7363455;19;20010;-61
2024/04/10 01:45:09;;;;;;;0.05;0.05;;;;;;;10.51;53.79;101299.38;7361157;19;20011;-62
2024/04/10 01:47:35;;;;;;;0.08;0.08;;;;;;;10.50;53.69;101289.81;7358756;19;20014;-61
2024/04/10 01:50:00;;;;;;;0.10;0.10;;;;;;;10.54;53.79;101293.22;7363468;19;20530;-62
2024/04/10 01:52:25;;;;;;;0.10;0.10;;;;;;;10.55;53.87;101285.38;7355751;19;20011;-62
2024/04/10 01:54:52;;;;;;;0.10;0.10;;;;;;;10.55;53.47;101280.16;7352734;19;20010;-63
2024/04/10 01:57:17;;;;;;;0.10;0.10;;;;;;;10.47;53.92;101255.88;7362524;19;20014;-62
2024/04/10 01:59:43;;;;;;;0.00;0.00;;;;;;;10.58;54.05;101280.09;7361762;19;20027;-62
2024/04/10 02:02:08;;;;;;;0.10;0.10;;;;;;;10.59;53.63;101281.88;7365581;19;20077;-62
2024/04/10 02:04:34;;;;;;;0.00;0.00;;;;;;;10.57;54.30;101269.69;7364858;19;20041;-63
2024/04/10 02:07:00;;;;;;;0.10;0.10;;;;;;;10.61;54.40;101272.25;7366010;19;20010;-62
2024/04/10 02:09:25;;;;;;;0.10;0.10;;;;;;;10.62;53.93;101260.91;7364909;19;20058;-62
2024/04/10 02:11:51;;;;;;;0.10;0.10;;;;;;;10.41;54.00;101224.66;7359872;19;20662;-62
2024/04/10 02:14:16;;;;;;;0.10;0.10;;;;;;;10.65;54.22;101260.00;7365425;19;20474;-62
2024/04/10 02:16:43;;;;;;;0.10;0.10;;;;;;;10.67;54.47;101262.59;7365606;19;20031;-62
2024/04/10 02:19:09;;;;;;;0.10;0.10;;;;;;;10.68;54.12;101248.66;7361381;19;20027;-61
2024/04/10 02:21:35;;;;;;;0.10;0.10;;;;;;;10.68;54.38;101248.66;7363950;19;20506;-61
2024/04/10 02:24:00;;;;;;;0.10;0.10;;;;;;;10.70;54.70;101250.38;7354124;19;20314;-62
2024/04/10 02:26:25;;;;;;;0.10;0.10;;;;;;;10.52;54.35;101212.31;7359945;19;20007;-62
2024/04/10 02:28:51;;;;;;;0.10;0.10;;;;;;;10.67;54.32;101233.88;7362313;19;20038;-61
2024/04/10 02:31:16;;;;;;;0.10;0.10;;;;;;;10.63;54.58;101226.06;7362373;19;20349;-62
2024/04/10 02:33:42;;;;;;;0.10;0.10;;;;;;;10.72;54.90;101240.75;7359735;19;20006;-62
2024/04/10 02:36:08;;;;;;;0.10;0.10;;;;;;;10.73;54.76;101237.25;7363119;19;20002;-62
2024/04/10 02:38:35;;;;;;;0.10;0.10;;;;;;;10.75;54.44;101245.06;7364898;19;20030;-62
2024/04/10 02:41:01;;;;;;;0.10;0.10;;;;;;;10.56;54.81;101223.56;7362432;19;20104;-62
2024/04/10 02:43:26;;;;;;;0.10;0.10;;;;;;;10.77;54.80;101248.50;7365054;19;20034;-61
2024/04/10 02:45:56;;;;;;;0.10;0.10;;;;;;;10.78;54.28;101255.47;7365167;19;20270;-61
2024/04/10 02:48:22;;;;;;;0.10;0.10;;;;;;;10.77;54.28;101251.13;7362482;19;20053;-63
2024/04/10 02:50:48;;;;;;;0.08;0.08;;;;;;;10.67;53.99;101237.34;7355433;19;20007;-62
2024/04/10 02:53:14;;;;;;;0.10;0.10;;;;;;;10.76;54.31;101246.78;7363826;19;20044;-62
2024/04/10 02:55:43;;;;;;;0.00;0.00;;;;;;;10.76;54.39;101239.81;7364764;19;20146;-62
2024/04/10 02:58:10;;;;;;;0.03;0.03;;;;;;;10.75;53.96;101232.00;7361988;19;20007;-62
2024/04/10 03:00:45;;;;;;;0.10;0.10;;;;;;;10.76;53.91;101223.28;7361219;19;20760;-62
2024/04/10 03:03:11;;;;;;;0.10;0.10;;;;;;;10.72;54.02;101216.38;7363882;19;20006;-62
2024/04/10 03:05:37;;;;;;;0.10;0.10;;;;;;;10.74;54.37;101222.44;7359906;19;20021;-61
2024/04/10 03:08:05;;;;;;;0.10;0.10;;;;;;;10.75;53.90;101208.50;7363144;19;20031;-62
2024/04/10 03:10:30;;;;;;;0.10;0.10;;;;;;;10.74;53.99;101209.38;7355322;19;20002;-62
2024/04/10 03:12:55;;;;;;;0.10;0.10;;;;;;;10.76;54.09;101210.22;7359294;19;20017;-62
2024/04/10 03:15:21;;;;;;;0.10;0.10;;;;;;;10.77;54.13;101209.34;7335647;19;20022;-61
2024/04/10 03:17:46;;;;;;;0.10;0.10;;;;;;;10.78;54.45;101205.81;7361777;19;20375;-62
2024/04/10 03:20:13;;;;;;;0.10;0.10;;;;;;;10.80;54.44;101201.47;7362794;19;20010;-61
2024/04/10 03:22:39;;;;;;;0.10;0.10;;;;;;;10.80;54.98;101198.84;7362177;19;20018;-62
2024/04/10 03:25:04;;;;;;;0.10;0.10;;;;;;;10.80;54.68;101201.47;7363864;19;20040;-63
2024/04/10 03:27:30;;;;;;;0.10;0.10;;;;;;;10.83;55.04;101196.16;7357771;19;19998;-62
2024/04/10 03:29:55;;;;;;;0.10;0.10;;;;;;;10.73;54.92;101176.31;7362346;19;19998;-62
2024/04/10 03:32:21;;;;;;;0.10;0.10;;;;;;;10.87;55.60;101190.00;7363567;19;20375;-62
2024/04/10 03:34:47;;;;;;;0.10;0.10;;;;;;;10.87;56.40;101182.19;7362985;19;20011;-61
2024/04/10 03:37:13;;;;;;;0.08;0.08;;;;;;;10.90;56.96;101182.13;7360644;19;20442;-62
2024/04/10 03:39:39;;;;;;;0.10;0.10;;;;;;;10.91;57.35;101186.47;7357598;19;20066;-61
2024/04/10 03:42:05;;;;;;;0.10;0.10;;;;;;;10.93;56.75;101182.06;7364185;19;20362;-62
2024/04/10 03:44:30;;;;;;;0.00;0.00;;;;;;;10.93;57.23;101184.69;7362341;19;20036;-61
2024/04/10 03:46:55;;;;;;;0.10;0.10;;;;;;;10.93;57.59;101179.47;7361954;19;20106;-62
2024/04/10 03:49:21;;;;;;;0.10;0.10;;;;;;;10.87;57.99;101166.50;7360574;19;20015;-63
2024/04/10 03:51:46;;;;;;;0.10;0.10;;;;;;;10.95;58.20;101175.09;7364707;19;20456;-62
2024/04/10 03:54:12;;;;;;;0.10;0.10;;;;;;;10.95;57.94;101175.09;7359690;19;20025;-62
2024/04/10 03:56:37;;;;;;;0.10;0.10;;;;;;;10.91;58.16;101162.94;7358663;19;20011;-62
2024/04/10 03:59:02;;;;;;;0.10;0.10;;;;;;;10.99;58.39;101168.03;7362113;19;20010;-61
2024/04/10 04:01:28;;;;;;;0.10;0.10;;;;;;;11.00;58.13;101157.56;7363913;19;20006;-63
2024/04/10 04:03:53;;;;;;;0.10;0.10;;;;;;;11.00;58.76;101152.34;7370005;19;20018;-63
2024/04/10 04:06:19;;;;;;;0.10;0.10;;;;;;;11.05;58.22;101147.91;7368681;19;20104;-61
2024/04/10 04:08:46;;;;;;;0.10;0.10;;;;;;;11.08;58.57;101145.22;7365239;19;20018;-61
2024/04/10 04:11:12;;;;;;;0.03;0.03;;;;;;;11.10;58.50;101140.84;7368567;19;20027;-62
2024/04/10 04:13:37;;;;;;;0.10;0.10;;;;;;;10.91;59.02;101089.78;7369848;19;20006;-62
2024/04/10 04:16:05;;;;;;;0.10;0.10;;;;;;;11.16;59.04;101121.56;7365837;19;20020;-62
2024/04/10 04:18:30;;;;;;;;;;;;;;;11.22;55.01;101124.06;7368183;19;20015;-62
2024/04/10 04:20:55;;;;;;;0.10;0.10;;;;;;;11.19;58.49;101108.44;7370786;19;19918;-62
2024/04/10 04:23:21;;;;;;;0.10;0.10;;;;;;;11.24;58.30;101108.34;7356348;19;20473;-61
2024/04/10 04:25:47;;;;;;;0.10;0.10;;;;;;;11.26;58.67;101111.81;7370825;19;20029;-62
2024/04/10 04:28:12;;;;;;;0.10;0.10;;;;;;;11.28;57.67;101096.94;7366679;19;20014;-62
2024/04/10 04:30:38;;;;;;;0.10;0.10;;;;;;;11.30;58.18;101082.06;7368818;19;20007;-62
2024/04/10 04:33:03;;;;;;;0.10;0.10;;;;;;;11.32;57.76;101072.47;7366074;19;20007;-62
2024/04/10 04:35:29;;;;;;;0.10;0.10;;;;;;;11.34;58.85;101074.16;7371981;19;20041;-63
2024/04/10 04:37:59;;;;;;;0.00;0.00;;;;;;;11.37;58.95;101073.25;7367515;19;20569;-62
2024/04/10 04:40:30;;;;;;;0.10;0.10;;;;;;;11.41;58.83;101061.84;7368755;19;20010;-62
2024/04/10 04:42:59;;;;;;;0.10;0.10;;;;;;;11.29;59.27;101038.53;7367491;19;20037;-62
2024/04/10 04:45:24;;;;;;;0.10;0.10;;;;;;;11.39;59.07;101051.38;7366889;19;20037;-62
2024/04/10 04:47:50;;;;;;;0.10;0.10;;;;;;;11.42;58.77;101043.47;7367557;19;20003;-62
2024/04/10 04:50:15;;;;;;;0.10;0.10;;;;;;;11.43;58.04;101036.50;7369196;19;20017;-62
2024/04/10 04:52:41;;;;;;;0.10;0.10;;;;;;;11.42;58.54;101034.78;7366597;19;20040;-62
2024/04/10 04:55:07;;;;;;;0.10;0.10;;;;;;;11.38;57.10;101022.66;7365941;19;19999;-62
2024/04/10 04:57:32;;;;;;;0.10;0.10;;;;;;;11.38;58.38;101013.06;7367283;19;20017;-63
2024/04/10 05:00:11;;;;;;;0.00;0.00;;;;;;;11.40;58.16;101015.63;7365460;19;20090;-62
2024/04/10 05:02:37;;;;;;;0.10;0.10;;;;;;;11.37;58.01;101005.25;7369533;19;20462;-62
2024/04/10 05:05:02;;;;;;;0.10;0.10;;;;;;;11.35;57.64;101002.69;7362904;19;20028;-61
2024/04/10 05:07:28;;;;;;;0.10;0.10;;;;;;;11.30;58.49;100996.66;7363079;19;20007;-62
2024/04/10 05:09:55;;;;;;;0.10;0.10;;;;;;;11.36;59.14;101006.16;7355882;19;20017;-61
2024/04/10 05:12:21;;;;;;;0.10;0.10;;;;;;;11.35;58.93;101004.41;7367431;19;20763;-62
2024/04/10 05:14:50;;;;;;;0.10;0.10;;;;;;;11.37;58.61;101000.03;7365304;19;21131;-62
2024/04/10 05:17:17;;;;;;;0.08;0.08;;;;;;;11.36;58.79;100993.09;7366718;19;20792;-62
2024/04/10 05:19:43;;;;;;;0.10;0.10;;;;;;;11.34;59.05;100995.72;7365281;19;20003;-63
2024/04/10 05:22:08;;;;;;;0.10;0.10;;;;;;;11.36;59.16;100993.09;7366176;19;20011;-62
2024/04/10 05:24:34;;;;;;;0.10;0.10;;;;;;;11.36;58.79;100980.00;7364046;19;20007;-63
2024/04/10 05:27:03;;;;;;;0.10;0.10;;;;;;;11.37;59.51;100985.19;7365675;19;20492;-62
2024/04/10 05:29:28;;;;;;;0.00;0.00;;;;;;;11.36;59.28;100977.41;7364094;19;20097;-62
2024/04/10 05:31:53;;;;;;;0.10;0.10;;;;;;;11.38;59.75;100976.44;7365368;19;20025;-62
2024/04/10 05:34:19;;;;;;;0.10;0.10;;;;;;;11.39;59.05;100982.53;7358363;19;20019;-62
2024/04/10 05:36:44;;;;;;;0.10;0.10;;;;;;;11.38;59.69;100975.59;7365827;19;20038;-62
2024/04/10 05:39:18;;;;;;;0.10;0.10;;;;;;;11.39;59.74;100972.94;7361935;19;20002;-62
2024/04/10 05:41:44;;;;;;;0.10;0.10;;;;;;;11.32;61.68;100954.81;7365487;19;20032;-61
2024/04/10 05:44:10;;;;;;;0.10;0.10;;;;;;;11.30;61.51;100949.59;7362669;19;20451;-61
2024/04/10 05:46:35;;;;;;;0.10;0.10;;;;;;;11.26;61.92;100934.91;7366264;19;20014;-60
2024/04/10 05:49:00;;;;;;;0.10;0.10;;;;;;;11.20;62.24;100927.16;7362973;19;20007;-60
2024/04/10 05:51:26;;;;;;;0.10;0.10;;;;;;;11.13;62.29;100908.16;7361855;19;20010;-60
2024/04/10 05:53:52;;;;;;;0.10;0.10;;;;;;;11.06;63.30;100896.13;7364198;19;20497;-61
2024/04/10 05:56:17;;;;;;;0.10;0.10;;;;;;;10.82;62.92;100857.44;7364293;19;20010;-60
2024/04/10 05:58:43;;;;;;;0.10;0.10;;;;;;;10.90;62.91;100868.59;7359166;19;20106;-60
2024/04/10 06:01:09;;;;;;;0.10;0.10;;;;;;;10.90;64.20;100866.84;7362513;19;20014;-61
2024/04/10 06:03:34;;;;;;;0.10;0.10;;;;;;;10.79;64.33;100860.97;7349493;19;254240;-60
2024/04/10 06:06:08;;;;;;;0.10;0.10;;;;;;;10.84;64.39;100876.53;7365596;19;20010;-60
2024/04/10 06:08:34;;;;;;;0.10;0.10;;;;;;;10.80;64.22;100882.75;7362887;19;20007;-62
2024/04/10 06:11:00;;;;;;;0.10;0.10;;;;;;;10.76;66.47;100871.50;7362423;19;20025;-61
2024/04/10 06:13:25;;;;;;;0.10;0.10;;;;;;;10.76;65.03;100875.88;7363475;19;20031;-61
2024/04/10 06:16:06;;;;;;;0.10;0.10;;;;;;;10.77;63.12;100872.34;7365634;19;20046;-61
2024/04/10 06:18:32;;;;;;;0.10;0.10;;;;;;;10.74;66.19;100873.25;7361226;19;20013;-61
2024/04/10 06:20:58;;;;;;;0.08;0.08;;;;;;;10.74;65.79;100883.72;7363429;19;20342;-61
2024/04/10 06:23:24;;;;;;;0.10;0.10;;;;;;;10.61;66.71;100867.44;7364764;19;20045;-61
2024/04/10 06:25:53;;;;;;;0.10;0.10;;;;;;;10.68;66.60;100869.94;7364391;19;20011;-60
2024/04/10 06:28:19;;;;;;;0.10;0.10;;;;;;;10.56;66.67;100848.41;7357570;19;20010;-60
2024/04/10 06:30:44;;;;;;;0.10;0.10;;;;;;;10.74;67.59;100881.09;7362244;19;20655;-61
2024/04/10 06:33:12;;;;;;;0.10;0.10;;;;;;;10.76;66.87;100871.50;7364369;19;20011;-61
2024/04/10 06:35:38;;;;;;;0.10;0.10;;;;;;;10.76;67.09;100878.47;7361720;19;20026;-61
2024/04/10 06:38:03;;;;;;;0.10;0.10;;;;;;;10.77;68.16;100862.75;7358887;19;20486;-60
2024/04/10 06:40:29;;;;;;;0.05;0.05;;;;;;;10.79;67.75;100866.19;7356404;19;20006;-61
2024/04/10 06:42:54;;;;;;;0.10;0.10;;;;;;;10.80;67.45;100874.91;7364049;19;20077;-60
2024/04/10 06:45:20;;;;;;;0.10;0.10;;;;;;;10.82;67.92;100878.34;7333024;19;20010;-61
2024/04/10 06:47:45;;;;;;;0.10;0.10;;;;;;;10.83;68.48;100882.66;7363885;19;20010;-61
2024/04/10 06:50:10;;;;;;;0.10;0.10;;;;;;;10.71;68.49;100856.81;7363203;19;20026;-61
2024/04/10 06:52:36;;;;;;;0.10;0.10;;;;;;;10.86;68.10;100887.84;7361542;19;20093;-61
2024/04/10 06:55:02;;;;;;;0.13;0.13;;;;;;;10.88;68.90;100871.22;7364676;19;20006;-60
2024/04/10 06:57:27;;;;;;;0.10;0.10;;;;;;;10.90;68.67;100866.00;7365572;19;20014;-61
2024/04/10 06:59:53;;;;;;;0.08;0.08;;;;;;;10.91;69.36;100857.25;7362408;19;20711;-62
2024/04/10 07:02:18;;;;;;;0.10;0.10;;;;;;;10.94;69.34;100844.09;7363040;19;20798;-60
2024/04/10 07:04:46;;;;;;;0.10;0.10;;;;;;;10.98;69.32;100840.53;7359564;19;20030;-62
2024/04/10 07:07:12;;;;;;;0.10;0.10;;;;;;;11.00;69.66;100858.78;7363887;19;20010;-60
2024/04/10 07:09:37;;;;;;;0.10;0.10;;;;;;;11.02;69.19;100864.88;7364789;19;20011;-61
2024/04/10 07:12:03;;;;;;;0.10;0.10;;;;;;;11.01;68.91;100856.16;7365543;19;20006;-60
2024/04/10 07:14:32;;;;;;;0.10;0.10;;;;;;;11.05;69.15;100863.06;7361787;19;20086;-61
2024/04/10 07:16:57;;;;;;;0.00;0.00;;;;;;;11.06;70.11;100849.09;7361509;19;20018;-60
2024/04/10 07:19:24;;;;;;;0.10;0.10;;;;;;;11.05;69.63;100836.91;7361330;19;20493;-61
2024/04/10 07:21:49;;;;;;;0.10;0.10;;;;;;;11.11;69.60;100844.59;7360552;19;20010;-61
2024/04/10 07:24:15;;;;;;;0.00;0.00;;;;;;;11.14;70.17;100838.44;7362635;19;20331;-60
2024/04/10 07:26:40;;;;;;;0.10;0.10;;;;;;;11.16;70.17;100829.69;7362917;19;20097;-60
2024/04/10 07:29:06;;;;;;;0.10;0.10;;;;;;;11.18;69.46;100820.03;7363826;19;20010;-60
2024/04/10 07:31:31;;;;;;;0.10;0.10;;;;;;;11.22;69.75;100819.97;7362874;19;20030;-60
2024/04/10 07:33:58;;;;;;;0.10;0.10;;;;;;;11.24;67.99;100821.66;7360845;19;20006;-60
2024/04/10 07:36:24;;;;;;;0.10;0.10;;;;;;;11.24;69.81;100818.19;7342195;19;20099;-61
2024/04/10 07:38:53;;;;;;;0.10;0.10;;;;;;;11.28;70.02;100814.59;7359739;19;20038;-61
2024/04/10 07:41:18;;;;;;;0.10;0.10;;;;;;;11.27;69.70;100818.97;7359179;19;20086;-60
2024/04/10 07:43:44;;;;;;;0.10;0.10;;;;;;;11.29;69.57;100824.16;7365211;19;20020;-60
2024/04/10 07:46:11;;;;;;;0.08;0.08;;;;;;;11.31;69.49;100827.63;7363021;19;20007;-61
2024/04/10 07:48:38;;;;;;;0.10;0.10;;;;;;;11.32;69.67;100813.63;7364809;19;20019;-60
2024/04/10 07:51:05;;;;;;;0.10;0.10;;;;;;;11.33;69.66;100815.34;7364092;19;20102;-60
2024/04/10 07:53:34;;;;;;;0.10;0.10;;;;;;;11.36;70.27;100807.44;7365724;19;20007;-60
2024/04/10 07:56:00;;;;;;;0.10;0.10;;;;;;;11.35;70.51;100797.88;7360682;19;20018;-61
2024/04/10 07:58:25;;;;;;;0.00;0.00;;;;;;;11.36;70.84;100797.00;7364524;19;20007;-60
2024/04/10 08:00:56;;;;;;;0.10;0.10;;;;;;;11.36;70.65;100799.59;7364405;19;20017;-61
2024/04/10 08:03:22;;;;;;;0.10;0.10;;;;;;;11.35;70.29;100798.75;7363525;19;20282;-60
2024/04/10 08:05:55;;;;;;;0.10;0.10;;;;;;;11.25;70.72;100767.59;7363806;19;20011;-60
2024/04/10 08:08:21;;;;;;;0.10;0.10;;;;;;;11.37;71.18;100798.69;7359273;19;20010;-61
2024/04/10 08:10:47;;;;;;;0.10;0.10;;;;;;;11.41;70.75;100798.59;7364474;19;20010;-60
2024/04/10 08:13:13;;;;;;;0.10;0.10;;;;;;;11.43;70.79;100790.69;7356883;19;20018;-61
2024/04/10 08:15:39;;;;;;;0.10;0.10;;;;;;;11.47;70.80;100791.50;7360163;19;20410;-61
2024/04/10 08:18:04;;;;;;;0.10;0.10;;;;;;;11.41;71.10;100771.59;7364615;19;20023;-62
2024/04/10 08:20:30;;;;;;;0.10;0.10;;;;;;;11.36;71.16;100749.94;7359469;19;20019;-61
2024/04/10 08:22:56;;;;;;;0.03;0.03;;;;;;;11.51;71.66;100762.63;7363058;19;20011;-61
2024/04/10 08:25:21;;;;;;;0.10;0.10;;;;;;;11.52;71.80;100759.09;7354973;19;20019;-60
2024/04/10 08:27:47;;;;;;;0.10;0.10;;;;;;;11.55;71.84;100748.53;7360079;19;20014;-61
2024/04/10 08:30:12;;;;;;;0.10;0.10;;;;;;;11.57;72.05;100752.00;7362329;19;20010;-60
2024/04/10 08:32:37;;;;;;;0.10;0.10;;;;;;;11.59;72.12;100747.56;7361769;19;20818;-61
2024/04/10 08:35:04;;;;;;;0.10;0.10;;;;;;;11.62;72.21;100744.88;7364293;19;20478;-61
2024/04/10 08:37:30;;;;;;;0.00;0.00;;;;;;;11.65;72.38;100739.56;7365746;19;20030;-61
2024/04/10 08:39:55;;;;;;;0.10;0.10;;;;;;;11.66;72.19;100733.44;7359600;19;20465;-61
2024/04/10 08:42:21;;;;;;;0.10;0.10;;;;;;;11.69;72.50;100720.25;7359297;19;20106;-61
2024/04/10 08:44:52;;;;;;;0.10;0.10;;;;;;;11.62;72.79;100703.03;7357395;19;20006;-61
2024/04/10 08:47:19;;;;;;;0.10;0.10;;;;;;;11.75;73.04;100719.22;7362320;19;20022;-62
2024/04/10 08:49:44;;;;;;;0.10;0.10;;;;;;;11.79;73.39;100714.78;7370010;19;20010;-62
2024/04/10 08:52:11;;;;;;;0.10;0.10;;;;;;;11.82;72.59;100714.75;7371123;19;20106;-61
2024/04/10 08:54:37;;;;;;;0.03;0.03;;;;;;;11.76;72.99;100691.31;7363728;19;20097;-62
2024/04/10 08:57:05;;;;;;;0.10;0.10;;;;;;;11.88;72.43;100714.56;7369771;19;20041;-61
2024/04/10 08:59:31;;;;;;;0.00;0.00;;;;;;;11.94;72.55;100704.78;7369442;19;20034;-61
2024/04/10 09:02:01;;;;;;;0.10;0.10;;;;;;;11.98;72.60;100705.56;7366381;19;20025;-62
2024/04/10 09:04:27;;;;;;;0.00;0.00;;;;;;;12.03;72.62;100708.06;7367644;19;20025;-62
2024/04/10 09:07:03;;;;;;;0.10;0.10;;;;;;;12.10;71.30;100699.09;7366595;19;20014;-62
2024/04/10 09:09:28;;;;;;;0.10;0.10;;;;;;;12.12;73.07;100698.19;7360401;19;20689;-61
2024/04/10 09:11:54;;;;;;;0.03;0.03;;;;;;;12.09;72.71;100687.78;7368983;19;20034;-62
2024/04/10 09:14:19;;;;;;;0.10;0.10;;;;;;;12.21;72.75;100704.88;7369683;19;20346;-62
2024/04/10 09:16:45;;;;;;;0.10;0.10;;;;;;;12.26;72.71;100709.97;7364190;19;20002;-62
2024/04/10 09:19:17;;;;;;;0.10;0.10;;;;;;;12.25;72.52;100695.19;7365482;19;20034;-62
2024/04/10 09:21:44;;;;;;;0.17;0.17;;;;;;;12.39;72.83;100711.34;7365068;19;22022;-61
2024/04/10 09:24:10;;;;;;;0.00;0.00;;;;;;;12.46;72.49;100712.88;7367452;19;20015;-62
2024/04/10 09:26:38;;;;;;;0.10;0.10;;;;;;;12.51;73.18;100703.09;7368066;19;20502;-61
2024/04/10 09:29:09;;;;;;;0.10;0.10;;;;;;;12.60;72.50;100700.22;7367452;19;20564;-62
2024/04/10 09:31:35;;;;;;;0.10;0.10;;;;;;;12.65;73.50;100693.06;7364069;19;20014;-62
2024/04/10 09:34:00;;;;;;;0.05;0.05;;;;;;;12.75;72.81;100692.78;7364679;19;20632;-63
2024/04/10 09:36:30;;;;;;;0.10;0.10;;;;;;;12.84;72.52;100682.00;7367518;19;20122;-62
2024/04/10 09:38:59;;;;;;;0.10;0.10;;;;;;;12.81;73.27;100648.88;7364867;19;20026;-63
2024/04/10 09:41:27;;;;;;;0.10;0.10;;;;;;;13.04;73.39;100673.50;7365031;19;20011;-62
2024/04/10 09:43:58;;;;;;;0.10;0.10;;;;;;;13.19;73.21;100679.09;7368438;19;20018;-63
2024/04/10 09:46:37;;;;;;;0.10;0.10;;;;;;;13.33;72.70;100686.53;7364977;19;20616;-61
2024/04/10 09:49:09;;;;;;;0.10;0.10;;;;;;;13.47;73.32;100697.38;7362228;19;20014;-62
2024/04/10 09:51:40;;;;;;;0.10;0.10;;;;;;;13.58;73.02;100691.75;7363282;19;20486;-62
2024/04/10 09:54:10;;;;;;;0.10;0.10;;;;;;;13.71;72.94;100694.81;7364478;19;20002;-62
2024/04/10 09:56:36;;;;;;;0.10;0.10;;;;;;;13.80;73.17;100697.09;7362974;19;20026;-61
2024/04/10 09:59:06;;;;;;;0.13;0.13;;;;;;;13.90;73.36;100697.63;7360870;19;20498;-62
2024/04/10 10:01:31;;;;;;;0.10;0.10;;;;;;;14.00;73.15;100696.38;7364606;19;20006;-62
2024/04/10 10:03:57;;;;;;;0.10;0.10;;;;;;;14.04;73.34;100682.22;7364168;19;20027;-62
2024/04/10 10:06:30;;;;;;;0.10;0.10;;;;;;;14.23;72.65;100685.84;7363052;19;20019;-62
2024/04/10 10:08:56;;;;;;;0.10;0.10;;;;;;;14.27;73.08;100697.09;7362237;19;20011;-62
2024/04/10 10:11:24;;;;;;;0.10;0.10;;;;;;;14.28;73.15;100699.66;7365106;19;20014;-61
2024/04/10 10:14:02;;;;;;;0.10;0.10;;;;;;;14.49;72.65;100702.41;7361426;19;20029;-61
2024/04/10 10:16:28;;;;;;;0.10;0.10;;;;;;;14.54;73.02;100695.22;7362698;19;20029;-63
2024/04/10 10:18:59;;;;;;;0.10;0.10;;;;;;;14.60;72.79;100700.25;7363182;19;20014;-62
2024/04/10 10:21:24;;;;;;;0.10;0.10;;;;;;;14.65;73.20;100687.78;7361593;19;20046;-62
2024/04/10 10:23:58;;;;;;;0.10;0.10;;;;;;;14.58;72.62;100649.50;7359692;19;20014;-63
2024/04/10 10:26:24;;;;;;;0.10;0.10;;;;;;;14.77;72.98;100679.38;7361739;19;20011;-62
2024/04/10 10:28:49;;;;;;;0.10;0.10;;;;;;;14.78;73.05;100678.47;7356524;19;20030;-61
2024/04/10 10:31:19;;;;;;;0.10;0.10;;;;;;;14.90;72.90;100692.03;7359346;19;20019;-63
2024/04/10 10:33:47;;;;;;;0.10;0.10;;;;;;;14.93;72.86;100684.88;7360653;19;21084;-62
2024/04/10 10:36:14;;;;;;;0.10;0.10;;;;;;;14.98;72.95;100676.81;7361480;19;20098;-62
2024/04/10 10:38:40;;;;;;;0.10;0.10;;;;;;;15.02;73.35;100673.13;7361652;19;20035;-62
2024/04/10 10:41:06;;;;;;;0.10;0.10;;;;;;;15.09;73.44;100698.25;7357201;19;20436;-61
2024/04/10 10:43:31;;;;;;;0.10;0.10;;;;;;;15.16;73.64;100698.88;7361704;19;20015;-63
2024/04/10 10:45:56;;;;;;;0.10;0.10;;;;;;;15.23;73.41;100693.28;7361385;19;20367;-62
2024/04/10 10:48:23;;;;;;;0.10;0.10;;;;;;;15.30;73.51;100697.34;7359515;19;20018;-63
2024/04/10 10:50:55;;;;;;;0.10;0.10;;;;;;;15.40;73.45;100675.91;7362978;19;20100;-62
2024/04/10 10:53:21;;;;;;;0.00;0.00;;;;;;;15.44;73.15;100690.66;7358619;19;20052;-63
2024/04/10 10:55:57;;;;;;;0.10;0.10;;;;;;;15.52;73.40;100680.66;7360196;19;20647;-61
2024/04/10 10:58:23;;;;;;;0.10;0.10;;;;;;;15.55;73.23;100688.41;7360945;19;20012;-62
2024/04/10 11:00:49;;;;;;;0.10;0.10;;;;;;;15.57;73.64;100678.69;7361632;19;21246;-62
2024/04/10 11:03:17;;;;;;;0.10;0.10;;;;;;;15.59;73.40;100682.09;7359846;19;20010;-63
2024/04/10 11:05:44;;;;;;;0.10;0.10;;;;;;;15.71;73.48;100702.66;7360603;19;20014;-63
2024/04/10 11:08:09;;;;;;;0.08;0.08;;;;;;;15.78;73.56;100714.63;7358899;19;20077;-62
2024/04/10 11:10:35;;;;;;;0.10;0.10;;;;;;;15.83;73.49;100712.66;7359249;19;20082;-62
2024/04/10 11:13:08;;;;;;;0.10;0.10;;;;;;;15.91;73.31;100704.38;7357052;19;20030;-63
2024/04/10 11:15:50;;;;;;;0.10;0.10;;;;;;;15.90;73.51;100686.03;7362347;19;20546;-63
2024/04/10 11:18:17;;;;;;;0.10;0.10;;;;;;;16.01;74.29;100723.25;7360156;19;20006;-62
2024/04/10 11:20:44;;;;;;;0.20;0.20;;;;;;;15.77;74.23;100631.28;7359015;19;20010;-62
2024/04/10 11:23:09;;;;;;;0.10;0.10;;;;;;;16.25;73.99;100687.06;7361081;19;20082;-62